sensor_id;sensor_type;location;lat;lon;timestamp;P1;durP1;ratioP1;P2;durP2;ratioP2
74658;SDS011;63186;51.204;6.536;2022-11-18T00:00:10;10.27;;;3.77;;
74658;SDS011;63186;51.204;6.536;2022-11-18T00:02:36;9.82;;;3.50;;
74658;SDS011;63186;51.204;6.536;2022-11-18T00:05:01;9.97;;;3.07;;
74658;SDS011;63186;51.204;6.536;2022-11-18T00:07:27;9.88;;;3.67;;
74658;SDS011;63186;51.204;6.536;2022-11-18T00:09:52;8.93;;;3.80;;
74658;SDS011;63186;51.204;6.536;2022-11-18T00:12:17;10.50;;;4.07;;
74658;SDS011;63186;51.204;6.536;2022-11-18T00:15:01;8.00;;;3.70;;
74658;SDS011;63186;51.204;6.536;2022-11-18T00:17:26;9.57;;;4.30;;
74658;SDS011;63186;51.204;6.536;2022-11-18T00:19:51;9.60;;;4.13;;
74658;SDS011;63186;51.204;6.536;2022-11-18T00:22:17;12.00;;;4.20;;
74658;SDS011;63186;51.204;6.536;2022-11-18T00:24:42;8.23;;;4.23;;
74658;SDS011;63186;51.204;6.536;2022-11-18T00:27:07;9.13;;;4.67;;
74658;SDS011;63186;51.204;6.536;2022-11-18T00:29:32;9.47;;;3.90;;
74658;SDS011;63186;51.204;6.536;2022-11-18T00:31:58;9.30;;;4.00;;
74658;SDS011;63186;51.204;6.536;2022-11-18T00:34:23;10.17;;;4.80;;
74658;SDS011;63186;51.204;6.536;2022-11-18T00:36:49;14.57;;;4.47;;
74658;SDS011;63186;51.204;6.536;2022-11-18T00:39:15;8.27;;;3.80;;
74658;SDS011;63186;51.204;6.536;2022-11-18T00:41:42;10.07;;;4.60;;
74658;SDS011;63186;51.204;6.536;2022-11-18T00:44:26;7.93;;;3.97;;
74658;SDS011;63186;51.204;6.536;2022-11-18T00:46:51;9.30;;;3.90;;
74658;SDS011;63186;51.204;6.536;2022-11-18T00:49:16;8.87;;;4.10;;
74658;SDS011;63186;51.204;6.536;2022-11-18T00:51:41;12.63;;;4.90;;
74658;SDS011;63186;51.204;6.536;2022-11-18T00:54:07;10.33;;;4.50;;
74658;SDS011;63186;51.204;6.536;2022-11-18T00:56:32;9.23;;;4.40;;
74658;SDS011;63186;51.204;6.536;2022-11-18T00:58:57;9.63;;;4.13;;
74658;SDS011;63186;51.204;6.536;2022-11-18T01:01:23;9.07;;;3.95;;
74658;SDS011;63186;51.204;6.536;2022-11-18T01:03:48;9.65;;;4.30;;
74658;SDS011;63186;51.204;6.536;2022-11-18T01:06:14;12.52;;;4.95;;
74658;SDS011;63186;51.204;6.536;2022-11-18T01:08:39;9.00;;;4.00;;
74658;SDS011;63186;51.204;6.536;2022-11-18T01:11:04;9.40;;;4.30;;
74658;SDS011;63186;51.204;6.536;2022-11-18T01:13:49;11.52;;;3.90;;
74658;SDS011;63186;51.204;6.536;2022-11-18T01:16:19;8.52;;;4.13;;
74658;SDS011;63186;51.204;6.536;2022-11-18T01:18:45;10.18;;;4.18;;
74658;SDS011;63186;51.204;6.536;2022-11-18T01:21:11;12.88;;;4.18;;
74658;SDS011;63186;51.204;6.536;2022-11-18T01:23:36;10.50;;;4.20;;
74658;SDS011;63186;51.204;6.536;2022-11-18T01:26:05;7.60;;;3.90;;
74658;SDS011;63186;51.204;6.536;2022-11-18T01:28:32;8.45;;;4.00;;
74658;SDS011;63186;51.204;6.536;2022-11-18T01:31:04;9.07;;;4.67;;
74658;SDS011;63186;51.204;6.536;2022-11-18T01:33:31;6.97;;;3.78;;
74658;SDS011;63186;51.204;6.536;2022-11-18T01:35:56;10.90;;;3.97;;
74658;SDS011;63186;51.204;6.536;2022-11-18T01:38:22;14.27;;;4.20;;
74658;SDS011;63186;51.204;6.536;2022-11-18T01:40:47;14.23;;;4.77;;
74658;SDS011;63186;51.204;6.536;2022-11-18T01:43:13;8.80;;;3.97;;
74658;SDS011;63186;51.204;6.536;2022-11-18T01:45:44;8.32;;;4.53;;
74658;SDS011;63186;51.204;6.536;2022-11-18T01:48:30;10.13;;;4.75;;
74658;SDS011;63186;51.204;6.536;2022-11-18T01:51:00;9.00;;;4.13;;
74658;SDS011;63186;51.204;6.536;2022-11-18T01:53:30;9.35;;;4.07;;
74658;SDS011;63186;51.204;6.536;2022-11-18T01:55:59;12.50;;;4.97;;
74658;SDS011;63186;51.204;6.536;2022-11-18T01:58:42;9.32;;;4.03;;
74658;SDS011;63186;51.204;6.536;2022-11-18T02:01:12;9.43;;;4.30;;
74658;SDS011;63186;51.204;6.536;2022-11-18T02:03:38;8.88;;;4.55;;
74658;SDS011;63186;51.204;6.536;2022-11-18T02:06:03;10.88;;;6.32;;
74658;SDS011;63186;51.204;6.536;2022-11-18T02:08:31;10.07;;;4.93;;
74658;SDS011;63186;51.204;6.536;2022-11-18T02:11:01;10.93;;;5.00;;
74658;SDS011;63186;51.204;6.536;2022-11-18T02:13:26;12.17;;;4.13;;
74658;SDS011;63186;51.204;6.536;2022-11-18T02:18:45;8.98;;;4.45;;
74658;SDS011;63186;51.204;6.536;2022-11-18T02:21:20;10.77;;;5.55;;
74658;SDS011;63186;51.204;6.536;2022-11-18T02:29:55;12.82;;;3.88;;
74658;SDS011;63186;51.204;6.536;2022-11-18T02:32:32;9.27;;;5.15;;
74658;SDS011;63186;51.204;6.536;2022-11-18T02:35:09;11.63;;;5.15;;
74658;SDS011;63186;51.204;6.536;2022-11-18T02:40:36;11.02;;;5.25;;
74658;SDS011;63186;51.204;6.536;2022-11-18T02:43:07;10.05;;;4.47;;
74658;SDS011;63186;51.204;6.536;2022-11-18T02:45:37;9.90;;;4.88;;
74658;SDS011;63186;51.204;6.536;2022-11-18T02:48:07;12.52;;;5.97;;
74658;SDS011;63186;51.204;6.536;2022-11-18T02:50:34;13.70;;;4.85;;
74658;SDS011;63186;51.204;6.536;2022-11-18T02:53:03;11.68;;;5.32;;
74658;SDS011;63186;51.204;6.536;2022-11-18T02:55:31;11.50;;;4.45;;
74658;SDS011;63186;51.204;6.536;2022-11-18T02:58:00;9.82;;;4.10;;
74658;SDS011;63186;51.204;6.536;2022-11-18T03:00:27;12.48;;;4.95;;
74658;SDS011;63186;51.204;6.536;2022-11-18T03:02:52;9.63;;;4.32;;
74658;SDS011;63186;51.204;6.536;2022-11-18T03:08:16;10.82;;;5.28;;
74658;SDS011;63186;51.204;6.536;2022-11-18T03:10:51;9.85;;;4.68;;
74658;SDS011;63186;51.204;6.536;2022-11-18T03:13:27;11.88;;;4.55;;
74658;SDS011;63186;51.204;6.536;2022-11-18T03:16:06;10.63;;;4.53;;
74658;SDS011;63186;51.204;6.536;2022-11-18T03:21:19;8.73;;;4.57;;
74658;SDS011;63186;51.204;6.536;2022-11-18T03:24:02;9.45;;;4.57;;
74658;SDS011;63186;51.204;6.536;2022-11-18T03:26:35;9.68;;;5.30;;
74658;SDS011;63186;51.204;6.536;2022-11-18T03:29:07;11.43;;;5.15;;
74658;SDS011;63186;51.204;6.536;2022-11-18T03:31:47;12.20;;;4.68;;
74658;SDS011;63186;51.204;6.536;2022-11-18T03:34:16;8.38;;;4.07;;
74658;SDS011;63186;51.204;6.536;2022-11-18T03:36:47;10.50;;;4.80;;
74658;SDS011;63186;51.204;6.536;2022-11-18T03:39:18;10.63;;;4.22;;
74658;SDS011;63186;51.204;6.536;2022-11-18T03:44:24;11.02;;;4.15;;
74658;SDS011;63186;51.204;6.536;2022-11-18T03:46:56;11.07;;;4.50;;
74658;SDS011;63186;51.204;6.536;2022-11-18T03:49:28;10.50;;;4.65;;
74658;SDS011;63186;51.204;6.536;2022-11-18T03:52:02;8.93;;;4.22;;
74658;SDS011;63186;51.204;6.536;2022-11-18T03:54:33;8.18;;;3.90;;
74658;SDS011;63186;51.204;6.536;2022-11-18T04:02:23;8.63;;;4.15;;
74658;SDS011;63186;51.204;6.536;2022-11-18T04:04:51;10.18;;;3.70;;
74658;SDS011;63186;51.204;6.536;2022-11-18T04:07:31;11.30;;;4.05;;
74658;SDS011;63186;51.204;6.536;2022-11-18T04:10:10;12.65;;;3.97;;
74658;SDS011;63186;51.204;6.536;2022-11-18T04:12:42;6.20;;;2.88;;
74658;SDS011;63186;51.204;6.536;2022-11-18T04:15:11;12.35;;;3.13;;
74658;SDS011;63186;51.204;6.536;2022-11-18T04:17:39;10.25;;;2.83;;
74658;SDS011;63186;51.204;6.536;2022-11-18T04:20:05;10.32;;;3.60;;
74658;SDS011;63186;51.204;6.536;2022-11-18T04:22:31;6.07;;;2.95;;
74658;SDS011;63186;51.204;6.536;2022-11-18T04:24:56;6.13;;;2.80;;
74658;SDS011;63186;51.204;6.536;2022-11-18T04:27:22;9.00;;;3.63;;
74658;SDS011;63186;51.204;6.536;2022-11-18T04:29:47;9.90;;;3.63;;
74658;SDS011;63186;51.204;6.536;2022-11-18T04:32:12;13.23;;;3.70;;
74658;SDS011;63186;51.204;6.536;2022-11-18T04:34:37;12.13;;;3.93;;
74658;SDS011;63186;51.204;6.536;2022-11-18T04:37:03;10.60;;;3.30;;
74658;SDS011;63186;51.204;6.536;2022-11-18T04:39:28;6.00;;;3.07;;
74658;SDS011;63186;51.204;6.536;2022-11-18T04:41:53;9.37;;;3.87;;
74658;SDS011;63186;51.204;6.536;2022-11-18T04:44:31;7.43;;;3.65;;
74658;SDS011;63186;51.204;6.536;2022-11-18T04:46:58;8.85;;;3.17;;
74658;SDS011;63186;51.204;6.536;2022-11-18T04:49:25;10.00;;;3.40;;
74658;SDS011;63186;51.204;6.536;2022-11-18T04:51:51;8.55;;;3.20;;
74658;SDS011;63186;51.204;6.536;2022-11-18T04:54:17;7.40;;;2.78;;
74658;SDS011;63186;51.204;6.536;2022-11-18T04:56:43;16.10;;;2.95;;
74658;SDS011;63186;51.204;6.536;2022-11-18T04:59:09;9.90;;;3.22;;
74658;SDS011;63186;51.204;6.536;2022-11-18T05:01:35;7.13;;;2.10;;
74658;SDS011;63186;51.204;6.536;2022-11-18T05:04:00;10.20;;;3.38;;
74658;SDS011;63186;51.204;6.536;2022-11-18T05:06:27;11.07;;;4.10;;
74658;SDS011;63186;51.204;6.536;2022-11-18T05:08:53;6.88;;;2.53;;
74658;SDS011;63186;51.204;6.536;2022-11-18T05:11:18;7.65;;;2.88;;
74658;SDS011;63186;51.204;6.536;2022-11-18T05:14:02;9.07;;;2.30;;
74658;SDS011;63186;51.204;6.536;2022-11-18T05:16:28;9.75;;;2.35;;
74658;SDS011;63186;51.204;6.536;2022-11-18T05:18:53;7.10;;;2.83;;
74658;SDS011;63186;51.204;6.536;2022-11-18T05:21:19;7.53;;;3.03;;
74658;SDS011;63186;51.204;6.536;2022-11-18T05:23:44;6.63;;;2.80;;
74658;SDS011;63186;51.204;6.536;2022-11-18T05:26:09;7.93;;;2.17;;
74658;SDS011;63186;51.204;6.536;2022-11-18T05:28:35;6.38;;;2.38;;
74658;SDS011;63186;51.204;6.536;2022-11-18T05:31:14;10.40;;;2.45;;
74658;SDS011;63186;51.204;6.536;2022-11-18T05:33:40;9.18;;;2.78;;
74658;SDS011;63186;51.204;6.536;2022-11-18T05:36:07;8.38;;;2.80;;
74658;SDS011;63186;51.204;6.536;2022-11-18T05:38:35;6.85;;;2.25;;
74658;SDS011;63186;51.204;6.536;2022-11-18T05:41:00;5.25;;;2.38;;
74658;SDS011;63186;51.204;6.536;2022-11-18T05:43:26;10.18;;;2.78;;
74658;SDS011;63186;51.204;6.536;2022-11-18T05:45:51;5.85;;;2.20;;
74658;SDS011;63186;51.204;6.536;2022-11-18T05:48:17;6.68;;;2.65;;
74658;SDS011;63186;51.204;6.536;2022-11-18T05:50:45;5.32;;;2.08;;
74658;SDS011;63186;51.204;6.536;2022-11-18T05:53:11;11.20;;;2.88;;
74658;SDS011;63186;51.204;6.536;2022-11-18T05:58:22;7.30;;;2.70;;
74658;SDS011;63186;51.204;6.536;2022-11-18T06:00:48;6.43;;;2.40;;
74658;SDS011;63186;51.204;6.536;2022-11-18T06:03:23;5.75;;;2.20;;
74658;SDS011;63186;51.204;6.536;2022-11-18T06:05:54;5.88;;;2.00;;
74658;SDS011;63186;51.204;6.536;2022-11-18T06:08:22;7.25;;;2.60;;
74658;SDS011;63186;51.204;6.536;2022-11-18T06:10:50;6.13;;;2.22;;
74658;SDS011;63186;51.204;6.536;2022-11-18T06:13:24;8.32;;;2.83;;
74658;SDS011;63186;51.204;6.536;2022-11-18T06:15:52;8.00;;;2.97;;
74658;SDS011;63186;51.204;6.536;2022-11-18T06:18:19;5.97;;;2.88;;
74658;SDS011;63186;51.204;6.536;2022-11-18T06:20:50;5.50;;;2.58;;
74658;SDS011;63186;51.204;6.536;2022-11-18T06:23:19;6.82;;;2.40;;
74658;SDS011;63186;51.204;6.536;2022-11-18T06:25:44;5.88;;;2.17;;
74658;SDS011;63186;51.204;6.536;2022-11-18T06:28:10;7.40;;;2.83;;
74658;SDS011;63186;51.204;6.536;2022-11-18T06:30:37;6.25;;;2.55;;
74658;SDS011;63186;51.204;6.536;2022-11-18T06:33:03;7.90;;;2.83;;
74658;SDS011;63186;51.204;6.536;2022-11-18T06:35:28;6.83;;;2.70;;
74658;SDS011;63186;51.204;6.536;2022-11-18T06:37:54;7.03;;;3.33;;
74658;SDS011;63186;51.204;6.536;2022-11-18T06:40:19;8.23;;;3.03;;
74658;SDS011;63186;51.204;6.536;2022-11-18T06:42:44;7.97;;;2.97;;
74658;SDS011;63186;51.204;6.536;2022-11-18T06:45:28;7.15;;;2.53;;
74658;SDS011;63186;51.204;6.536;2022-11-18T06:47:57;7.53;;;3.47;;
74658;SDS011;63186;51.204;6.536;2022-11-18T06:50:24;7.68;;;3.00;;
74658;SDS011;63186;51.204;6.536;2022-11-18T06:52:49;9.10;;;2.90;;
74658;SDS011;63186;51.204;6.536;2022-11-18T06:55:14;6.67;;;2.73;;
74658;SDS011;63186;51.204;6.536;2022-11-18T06:57:39;7.53;;;2.97;;
74658;SDS011;63186;51.204;6.536;2022-11-18T07:00:05;5.60;;;2.83;;
74658;SDS011;63186;51.204;6.536;2022-11-18T07:02:31;7.72;;;3.17;;
74658;SDS011;63186;51.204;6.536;2022-11-18T07:04:56;10.07;;;3.00;;
74658;SDS011;63186;51.204;6.536;2022-11-18T07:07:21;7.60;;;3.13;;
74658;SDS011;63186;51.204;6.536;2022-11-18T07:09:47;8.17;;;3.67;;
74658;SDS011;63186;51.204;6.536;2022-11-18T07:12:12;6.70;;;3.80;;
74658;SDS011;63186;51.204;6.536;2022-11-18T07:14:37;6.60;;;2.77;;
74658;SDS011;63186;51.204;6.536;2022-11-18T07:17:02;9.57;;;2.80;;
74658;SDS011;63186;51.204;6.536;2022-11-18T07:19:28;8.30;;;3.13;;
74658;SDS011;63186;51.204;6.536;2022-11-18T07:21:53;6.00;;;3.30;;
74658;SDS011;63186;51.204;6.536;2022-11-18T07:24:18;7.22;;;2.70;;
74658;SDS011;63186;51.204;6.536;2022-11-18T07:26:43;8.30;;;3.23;;
74658;SDS011;63186;51.204;6.536;2022-11-18T07:29:09;7.77;;;3.70;;
74658;SDS011;63186;51.204;6.536;2022-11-18T07:31:34;7.60;;;2.90;;
74658;SDS011;63186;51.204;6.536;2022-11-18T07:34:01;7.57;;;3.20;;
74658;SDS011;63186;51.204;6.536;2022-11-18T07:36:27;6.50;;;2.95;;
74658;SDS011;63186;51.204;6.536;2022-11-18T07:38:53;7.82;;;2.95;;
74658;SDS011;63186;51.204;6.536;2022-11-18T07:41:21;5.32;;;2.90;;
74658;SDS011;63186;51.204;6.536;2022-11-18T07:43:48;7.63;;;2.97;;
74658;SDS011;63186;51.204;6.536;2022-11-18T07:48:41;8.32;;;2.90;;
74658;SDS011;63186;51.204;6.536;2022-11-18T07:51:08;7.40;;;3.35;;
74658;SDS011;63186;51.204;6.536;2022-11-18T07:53:34;10.80;;;3.63;;
74658;SDS011;63186;51.204;6.536;2022-11-18T07:56:00;7.07;;;3.50;;
74658;SDS011;63186;51.204;6.536;2022-11-18T07:58:26;9.30;;;3.42;;
74658;SDS011;63186;51.204;6.536;2022-11-18T08:00:52;6.93;;;3.30;;
74658;SDS011;63186;51.204;6.536;2022-11-18T08:03:17;7.80;;;3.67;;
74658;SDS011;63186;51.204;6.536;2022-11-18T08:05:42;7.93;;;3.55;;
74658;SDS011;63186;51.204;6.536;2022-11-18T08:08:08;8.10;;;3.50;;
74658;SDS011;63186;51.204;6.536;2022-11-18T08:10:34;6.55;;;3.40;;
74658;SDS011;63186;51.204;6.536;2022-11-18T08:13:00;11.07;;;3.60;;
74658;SDS011;63186;51.204;6.536;2022-11-18T08:15:25;9.27;;;3.20;;
74658;SDS011;63186;51.204;6.536;2022-11-18T08:17:50;10.63;;;3.23;;
74658;SDS011;63186;51.204;6.536;2022-11-18T08:20:16;7.10;;;3.55;;
74658;SDS011;63186;51.204;6.536;2022-11-18T08:22:41;8.05;;;3.38;;
74658;SDS011;63186;51.204;6.536;2022-11-18T08:25:06;9.17;;;3.83;;
74658;SDS011;63186;51.204;6.536;2022-11-18T08:27:32;9.98;;;3.55;;
74658;SDS011;63186;51.204;6.536;2022-11-18T08:29:57;9.83;;;3.73;;
74658;SDS011;63186;51.204;6.536;2022-11-18T08:32:23;10.63;;;3.80;;
74658;SDS011;63186;51.204;6.536;2022-11-18T08:34:49;7.27;;;3.23;;
74658;SDS011;63186;51.204;6.536;2022-11-18T08:37:14;8.23;;;3.95;;
74658;SDS011;63186;51.204;6.536;2022-11-18T08:39:40;8.85;;;4.43;;
74658;SDS011;63186;51.204;6.536;2022-11-18T08:42:06;11.60;;;5.30;;
74658;SDS011;63186;51.204;6.536;2022-11-18T08:44:31;9.97;;;5.13;;
74658;SDS011;63186;51.204;6.536;2022-11-18T08:46:58;10.65;;;5.22;;
74658;SDS011;63186;51.204;6.536;2022-11-18T08:49:24;8.77;;;3.58;;
74658;SDS011;63186;51.204;6.536;2022-11-18T08:51:49;7.95;;;4.20;;
74658;SDS011;63186;51.204;6.536;2022-11-18T08:54:14;9.63;;;4.10;;
74658;SDS011;63186;51.204;6.536;2022-11-18T08:56:40;9.03;;;3.77;;
74658;SDS011;63186;51.204;6.536;2022-11-18T08:59:05;9.03;;;3.70;;
74658;SDS011;63186;51.204;6.536;2022-11-18T09:01:34;11.43;;;4.18;;
74658;SDS011;63186;51.204;6.536;2022-11-18T09:04:01;12.32;;;4.05;;
74658;SDS011;63186;51.204;6.536;2022-11-18T09:06:26;8.43;;;2.85;;
74658;SDS011;63186;51.204;6.536;2022-11-18T09:08:52;7.73;;;3.40;;
74658;SDS011;63186;51.204;6.536;2022-11-18T09:11:22;8.05;;;3.30;;
74658;SDS011;63186;51.204;6.536;2022-11-18T09:13:58;8.40;;;2.80;;
74658;SDS011;63186;51.204;6.536;2022-11-18T09:16:24;7.47;;;3.00;;
74658;SDS011;63186;51.204;6.536;2022-11-18T09:18:50;8.70;;;3.72;;
74658;SDS011;63186;51.204;6.536;2022-11-18T09:21:16;7.72;;;3.25;;
74658;SDS011;63186;51.204;6.536;2022-11-18T09:23:42;9.55;;;3.13;;
74658;SDS011;63186;51.204;6.536;2022-11-18T09:26:08;9.65;;;2.90;;
74658;SDS011;63186;51.204;6.536;2022-11-18T09:28:35;13.52;;;3.42;;
74658;SDS011;63186;51.204;6.536;2022-11-18T09:31:02;8.93;;;2.90;;
74658;SDS011;63186;51.204;6.536;2022-11-18T09:33:29;8.20;;;2.33;;
74658;SDS011;63186;51.204;6.536;2022-11-18T09:35:54;7.90;;;2.50;;
74658;SDS011;63186;51.204;6.536;2022-11-18T09:38:19;7.13;;;2.28;;
74658;SDS011;63186;51.204;6.536;2022-11-18T09:40:51;6.57;;;2.53;;
74658;SDS011;63186;51.204;6.536;2022-11-18T09:43:29;7.88;;;2.58;;
74658;SDS011;63186;51.204;6.536;2022-11-18T09:46:11;6.30;;;2.58;;
74658;SDS011;63186;51.204;6.536;2022-11-18T09:48:45;7.82;;;2.53;;
74658;SDS011;63186;51.204;6.536;2022-11-18T09:51:30;7.75;;;2.50;;
74658;SDS011;63186;51.204;6.536;2022-11-18T09:54:03;6.38;;;2.63;;
74658;SDS011;63186;51.204;6.536;2022-11-18T09:56:28;6.93;;;2.37;;
74658;SDS011;63186;51.204;6.536;2022-11-18T09:58:53;7.70;;;2.38;;
74658;SDS011;63186;51.204;6.536;2022-11-18T10:01:19;5.97;;;2.13;;
74658;SDS011;63186;51.204;6.536;2022-11-18T10:03:45;9.18;;;2.40;;
74658;SDS011;63186;51.204;6.536;2022-11-18T10:06:19;7.63;;;2.63;;
74658;SDS011;63186;51.204;6.536;2022-11-18T10:09:01;5.88;;;2.42;;
74658;SDS011;63186;51.204;6.536;2022-11-18T10:11:37;7.47;;;2.20;;
74658;SDS011;63186;51.204;6.536;2022-11-18T10:17:30;10.20;;;2.83;;
74658;SDS011;63186;51.204;6.536;2022-11-18T10:20:08;12.00;;;2.50;;
74658;SDS011;63186;51.204;6.536;2022-11-18T10:22:53;8.27;;;2.60;;
74658;SDS011;63186;51.204;6.536;2022-11-18T10:25:22;4.20;;;2.10;;
74658;SDS011;63186;51.204;6.536;2022-11-18T10:27:49;9.30;;;2.78;;
74658;SDS011;63186;51.204;6.536;2022-11-18T10:30:24;11.25;;;2.20;;
74658;SDS011;63186;51.204;6.536;2022-11-18T10:32:57;6.15;;;1.80;;
74658;SDS011;63186;51.204;6.536;2022-11-18T10:35:33;6.78;;;1.85;;
74658;SDS011;63186;51.204;6.536;2022-11-18T10:38:04;5.45;;;1.98;;
74658;SDS011;63186;51.204;6.536;2022-11-18T10:40:31;6.93;;;1.80;;
74658;SDS011;63186;51.204;6.536;2022-11-18T10:42:58;7.53;;;2.38;;
74658;SDS011;63186;51.204;6.536;2022-11-18T10:45:30;7.18;;;2.30;;
74658;SDS011;63186;51.204;6.536;2022-11-18T10:48:00;6.30;;;1.98;;
74658;SDS011;63186;51.204;6.536;2022-11-18T10:50:45;4.43;;;1.65;;
74658;SDS011;63186;51.204;6.536;2022-11-18T10:58:27;12.70;;;3.55;;
74658;SDS011;63186;51.204;6.536;2022-11-18T11:01:05;7.78;;;2.00;;
74658;SDS011;63186;51.204;6.536;2022-11-18T11:03:51;10.10;;;1.92;;
74658;SDS011;63186;51.204;6.536;2022-11-18T11:06:21;7.75;;;2.72;;
74658;SDS011;63186;51.204;6.536;2022-11-18T11:08:52;5.53;;;1.70;;
74658;SDS011;63186;51.204;6.536;2022-11-18T11:11:23;4.45;;;1.60;;
74658;SDS011;63186;51.204;6.536;2022-11-18T11:13:53;8.10;;;1.65;;
74658;SDS011;63186;51.204;6.536;2022-11-18T11:16:25;9.93;;;2.85;;
74658;SDS011;63186;51.204;6.536;2022-11-18T11:21:24;5.13;;;1.42;;
74658;SDS011;63186;51.204;6.536;2022-11-18T11:23:51;7.88;;;1.85;;
74658;SDS011;63186;51.204;6.536;2022-11-18T11:26:33;6.07;;;2.03;;
74658;SDS011;63186;51.204;6.536;2022-11-18T11:29:18;7.68;;;2.15;;
74658;SDS011;63186;51.204;6.536;2022-11-18T11:34:35;3.45;;;1.48;;
74658;SDS011;63186;51.204;6.536;2022-11-18T11:45:45;9.40;;;2.30;;
74658;SDS011;63186;51.204;6.536;2022-11-18T11:50:51;7.47;;;1.90;;
74658;SDS011;63186;51.204;6.536;2022-11-18T12:06:35;10.15;;;2.60;;
74658;SDS011;63186;51.204;6.536;2022-11-18T12:09:04;8.75;;;2.40;;
74658;SDS011;63186;51.204;6.536;2022-11-18T12:11:43;7.38;;;2.40;;
74658;SDS011;63186;51.204;6.536;2022-11-18T12:14:19;9.38;;;3.08;;
74658;SDS011;63186;51.204;6.536;2022-11-18T12:17:10;12.05;;;2.50;;
74658;SDS011;63186;51.204;6.536;2022-11-18T12:19:45;5.43;;;2.90;;
74658;SDS011;63186;51.204;6.536;2022-11-18T12:22:10;7.77;;;2.93;;
74658;SDS011;63186;51.204;6.536;2022-11-18T12:24:36;5.13;;;2.70;;
74658;SDS011;63186;51.204;6.536;2022-11-18T12:34:57;9.15;;;2.47;;
74658;SDS011;63186;51.204;6.536;2022-11-18T12:40:29;10.38;;;3.75;;
74658;SDS011;63186;51.204;6.536;2022-11-18T12:42:55;7.60;;;2.90;;
74658;SDS011;63186;51.204;6.536;2022-11-18T12:48:25;9.03;;;3.00;;
74658;SDS011;63186;51.204;6.536;2022-11-18T12:50:57;8.63;;;3.00;;
74658;SDS011;63186;51.204;6.536;2022-11-18T12:55:53;9.73;;;3.00;;
74658;SDS011;63186;51.204;6.536;2022-11-18T12:58:20;10.18;;;3.47;;
74658;SDS011;63186;51.204;6.536;2022-11-18T13:00:47;10.40;;;3.13;;
74658;SDS011;63186;51.204;6.536;2022-11-18T13:03:25;6.45;;;2.95;;
74658;SDS011;63186;51.204;6.536;2022-11-18T13:06:00;10.23;;;5.28;;
74658;SDS011;63186;51.204;6.536;2022-11-18T13:08:28;10.45;;;3.83;;
74658;SDS011;63186;51.204;6.536;2022-11-18T13:10:55;7.90;;;4.38;;
74658;SDS011;63186;51.204;6.536;2022-11-18T13:13:44;6.07;;;3.40;;
74658;SDS011;63186;51.204;6.536;2022-11-18T13:16:18;8.23;;;3.00;;
74658;SDS011;63186;51.204;6.536;2022-11-18T13:19:04;7.95;;;3.33;;
74658;SDS011;63186;51.204;6.536;2022-11-18T13:21:30;10.77;;;4.43;;
74658;SDS011;63186;51.204;6.536;2022-11-18T13:24:14;8.57;;;3.33;;
74658;SDS011;63186;51.204;6.536;2022-11-18T13:26:42;7.50;;;3.50;;
74658;SDS011;63186;51.204;6.536;2022-11-18T13:34:50;8.80;;;3.30;;
74658;SDS011;63186;51.204;6.536;2022-11-18T13:37:18;8.68;;;3.35;;
74658;SDS011;63186;51.204;6.536;2022-11-18T13:39:46;8.70;;;4.50;;
74658;SDS011;63186;51.204;6.536;2022-11-18T13:42:31;10.48;;;4.25;;
74658;SDS011;63186;51.204;6.536;2022-11-18T13:44:57;8.55;;;3.60;;
74658;SDS011;63186;51.204;6.536;2022-11-18T13:55:37;9.43;;;4.07;;
74658;SDS011;63186;51.204;6.536;2022-11-18T14:00:42;8.73;;;3.65;;
74658;SDS011;63186;51.204;6.536;2022-11-18T14:03:23;8.70;;;3.55;;
74658;SDS011;63186;51.204;6.536;2022-11-18T14:05:53;8.82;;;3.03;;
74658;SDS011;63186;51.204;6.536;2022-11-18T14:08:30;9.95;;;3.30;;
74658;SDS011;63186;51.204;6.536;2022-11-18T14:10:57;13.55;;;4.38;;
74658;SDS011;63186;51.204;6.536;2022-11-18T14:13:27;10.68;;;3.47;;
74658;SDS011;63186;51.204;6.536;2022-11-18T14:16:41;7.60;;;3.75;;
74658;SDS011;63186;51.204;6.536;2022-11-18T14:18:47;7.47;;;3.08;;
74658;SDS011;63186;51.204;6.536;2022-11-18T14:23:50;10.05;;;3.53;;
74658;SDS011;63186;51.204;6.536;2022-11-18T14:26:18;7.87;;;3.53;;
74658;SDS011;63186;51.204;6.536;2022-11-18T14:28:55;8.65;;;3.47;;
74658;SDS011;63186;51.204;6.536;2022-11-18T14:31:26;12.88;;;4.28;;
74658;SDS011;63186;51.204;6.536;2022-11-18T14:36:37;8.07;;;3.72;;
74658;SDS011;63186;51.204;6.536;2022-11-18T14:39:04;8.23;;;3.70;;
74658;SDS011;63186;51.204;6.536;2022-11-18T14:41:36;8.48;;;3.38;;
74658;SDS011;63186;51.204;6.536;2022-11-18T14:44:11;9.77;;;4.10;;
74658;SDS011;63186;51.204;6.536;2022-11-18T14:46:40;10.43;;;4.00;;
74658;SDS011;63186;51.204;6.536;2022-11-18T14:49:11;9.63;;;4.30;;
74658;SDS011;63186;51.204;6.536;2022-11-18T14:51:39;11.90;;;4.55;;
74658;SDS011;63186;51.204;6.536;2022-11-18T14:54:04;8.02;;;2.85;;
74658;SDS011;63186;51.204;6.536;2022-11-18T14:56:30;9.25;;;4.32;;
74658;SDS011;63186;51.204;6.536;2022-11-18T14:58:57;6.75;;;3.60;;
74658;SDS011;63186;51.204;6.536;2022-11-18T15:01:23;9.57;;;4.05;;
74658;SDS011;63186;51.204;6.536;2022-11-18T15:03:51;7.55;;;3.80;;
74658;SDS011;63186;51.204;6.536;2022-11-18T15:06:17;14.83;;;5.37;;
74658;SDS011;63186;51.204;6.536;2022-11-18T15:08:44;8.27;;;3.88;;
74658;SDS011;63186;51.204;6.536;2022-11-18T15:11:10;9.10;;;3.90;;
74658;SDS011;63186;51.204;6.536;2022-11-18T15:13:37;8.63;;;4.20;;
74658;SDS011;63186;51.204;6.536;2022-11-18T15:16:10;10.55;;;4.60;;
74658;SDS011;63186;51.204;6.536;2022-11-18T15:18:43;12.02;;;4.20;;
74658;SDS011;63186;51.204;6.536;2022-11-18T15:21:11;8.95;;;4.05;;
74658;SDS011;63186;51.204;6.536;2022-11-18T15:23:36;10.95;;;4.22;;
74658;SDS011;63186;51.204;6.536;2022-11-18T15:26:02;14.60;;;5.17;;
74658;SDS011;63186;51.204;6.536;2022-11-18T15:28:36;11.73;;;3.85;;
74658;SDS011;63186;51.204;6.536;2022-11-18T15:31:01;8.83;;;3.60;;
74658;SDS011;63186;51.204;6.536;2022-11-18T15:33:26;7.93;;;3.93;;
74658;SDS011;63186;51.204;6.536;2022-11-18T15:35:52;8.45;;;4.45;;
74658;SDS011;63186;51.204;6.536;2022-11-18T15:38:17;8.63;;;4.13;;
74658;SDS011;63186;51.204;6.536;2022-11-18T15:40:42;10.60;;;4.37;;
74658;SDS011;63186;51.204;6.536;2022-11-18T15:43:07;11.13;;;4.40;;
74658;SDS011;63186;51.204;6.536;2022-11-18T15:45:33;7.25;;;3.72;;
74658;SDS011;63186;51.204;6.536;2022-11-18T15:47:58;8.13;;;4.50;;
74658;SDS011;63186;51.204;6.536;2022-11-18T15:50:23;9.07;;;4.47;;
74658;SDS011;63186;51.204;6.536;2022-11-18T15:52:49;10.77;;;4.27;;
74658;SDS011;63186;51.204;6.536;2022-11-18T15:55:14;13.10;;;4.27;;
74658;SDS011;63186;51.204;6.536;2022-11-18T15:57:39;8.20;;;4.45;;
74658;SDS011;63186;51.204;6.536;2022-11-18T16:00:05;11.20;;;4.40;;
74658;SDS011;63186;51.204;6.536;2022-11-18T16:02:33;7.10;;;3.72;;
74658;SDS011;63186;51.204;6.536;2022-11-18T16:04:58;13.13;;;4.70;;
74658;SDS011;63186;51.204;6.536;2022-11-18T16:07:23;11.87;;;4.63;;
74658;SDS011;63186;51.204;6.536;2022-11-18T16:09:49;11.40;;;4.90;;
74658;SDS011;63186;51.204;6.536;2022-11-18T16:12:32;9.57;;;4.00;;
74658;SDS011;63186;51.204;6.536;2022-11-18T16:15:14;11.18;;;4.57;;
74658;SDS011;63186;51.204;6.536;2022-11-18T16:17:59;9.35;;;4.78;;
74658;SDS011;63186;51.204;6.536;2022-11-18T16:20:25;11.85;;;5.60;;
74658;SDS011;63186;51.204;6.536;2022-11-18T16:22:51;12.32;;;5.00;;
74658;SDS011;63186;51.204;6.536;2022-11-18T16:25:17;13.50;;;6.15;;
74658;SDS011;63186;51.204;6.536;2022-11-18T16:27:43;11.45;;;6.95;;
74658;SDS011;63186;51.204;6.536;2022-11-18T16:30:08;11.20;;;5.93;;
74658;SDS011;63186;51.204;6.536;2022-11-18T16:32:54;11.07;;;5.78;;
74658;SDS011;63186;51.204;6.536;2022-11-18T16:35:19;10.88;;;5.57;;
74658;SDS011;63186;51.204;6.536;2022-11-18T16:37:45;10.67;;;5.50;;
74658;SDS011;63186;51.204;6.536;2022-11-18T16:40:10;12.87;;;6.20;;